sensor_id;sensor_type;location;lat;lon;timestamp;pressure;altitude;pressure_sealevel;temperature;humidity
80678;BME280;70042;52.494;5.502;2023-09-12T00:02:00;101448.00;;;25.43;66.27
80678;BME280;70042;52.494;5.502;2023-09-12T00:04:25;101443.56;;;25.42;66.26
80678;BME280;70042;52.494;5.502;2023-09-12T00:06:50;101457.81;;;25.42;66.30
80678;BME280;70042;52.494;5.502;2023-09-12T00:09:16;101464.97;;;25.42;66.21
80678;BME280;70042;52.494;5.502;2023-09-12T00:11:41;101467.66;;;25.42;66.28
80678;BME280;70042;52.494;5.502;2023-09-12T00:14:08;101456.16;;;25.40;66.31
80678;BME280;70042;52.494;5.502;2023-09-12T00:16:34;101455.28;;;25.39;66.39
80678;BME280;70042;52.494;5.502;2023-09-12T00:18:59;101451.59;;;25.42;66.35
80678;BME280;70042;52.494;5.502;2023-09-12T00:21:25;101446.25;;;25.42;66.26
80678;BME280;70042;52.494;5.502;2023-09-12T00:23:51;101448.16;;;25.40;66.41
80678;BME280;70042;52.494;5.502;2023-09-12T00:26:16;101446.31;;;25.40;66.19
80678;BME280;70042;52.494;5.502;2023-09-12T00:28:41;101440.97;;;25.40;66.15
80678;BME280;70042;52.494;5.502;2023-09-12T00:31:07;101452.53;;;25.41;66.23
80678;BME280;70042;52.494;5.502;2023-09-12T00:33:32;101442.78;;;25.40;66.28
80678;BME280;70042;52.494;5.502;2023-09-12T00:35:58;101438.38;;;25.39;66.49
80678;BME280;70042;52.494;5.502;2023-09-12T00:38:23;101436.63;;;25.38;65.82
80678;BME280;70042;52.494;5.502;2023-09-12T00:40:49;101429.56;;;25.37;66.14
80678;BME280;70042;52.494;5.502;2023-09-12T00:43:15;101440.28;;;25.37;66.44
80678;BME280;70042;52.494;5.502;2023-09-12T00:45:41;101430.50;;;25.36;66.29
80678;BME280;70042;52.494;5.502;2023-09-12T00:48:06;101423.25;;;25.38;66.33
80678;BME280;70042;52.494;5.502;2023-09-12T00:50:33;101426.94;;;25.35;66.35
80678;BME280;70042;52.494;5.502;2023-09-12T00:53:01;101425.16;;;25.36;66.26
80678;BME280;70042;52.494;5.502;2023-09-12T00:55:29;101430.56;;;25.34;66.09
80678;BME280;70042;52.494;5.502;2023-09-12T00:57:57;101427.03;;;25.34;66.28
80678;BME280;70042;52.494;5.502;2023-09-12T01:00:23;101423.41;;;25.35;66.21
80678;BME280;70042;52.494;5.502;2023-09-12T01:02:48;101431.44;;;25.35;66.34
80678;BME280;70042;52.494;5.502;2023-09-12T01:05:16;101435.06;;;25.34;66.21
80678;BME280;70042;52.494;5.502;2023-09-12T01:07:42;101438.66;;;25.33;66.22
80678;BME280;70042;52.494;5.502;2023-09-12T01:10:09;101436.91;;;25.32;66.19
80678;BME280;70042;52.494;5.502;2023-09-12T01:12:35;101435.19;;;25.31;66.05
80678;BME280;70042;52.494;5.502;2023-09-12T01:15:01;101429.00;;;25.30;66.47
80678;BME280;70042;52.494;5.502;2023-09-12T01:17:26;101426.31;;;25.30;65.95
80678;BME280;70042;52.494;5.502;2023-09-12T01:19:52;101428.13;;;25.30;66.20
80678;BME280;70042;52.494;5.502;2023-09-12T01:22:45;101421.09;;;25.27;65.91
80678;BME280;70042;52.494;5.502;2023-09-12T01:28:23;101424.63;;;25.28;65.84
80678;BME280;70042;52.494;5.502;2023-09-12T01:30:50;101418.44;;;25.27;66.15
80678;BME280;70042;52.494;5.502;2023-09-12T01:33:17;101416.69;;;25.26;65.99
80678;BME280;70042;52.494;5.502;2023-09-12T01:35:42;101419.28;;;25.28;65.99
80678;BME280;70042;52.494;5.502;2023-09-12T01:38:09;101428.25;;;25.27;65.97
80678;BME280;70042;52.494;5.502;2023-09-12T01:40:40;101425.59;;;25.27;66.22
80678;BME280;70042;52.494;5.502;2023-09-12T01:43:08;101431.88;;;25.26;66.36
80678;BME280;70042;52.494;5.502;2023-09-12T01:45:35;101431.97;;;25.24;66.24
80678;BME280;70042;52.494;5.502;2023-09-12T01:48:00;101435.47;;;25.25;66.17
80678;BME280;70042;52.494;5.502;2023-09-12T01:50:26;101444.38;;;25.25;65.92
80678;BME280;70042;52.494;5.502;2023-09-12T01:52:53;101440.81;;;25.25;65.90
80678;BME280;70042;52.494;5.502;2023-09-12T01:55:19;101440.97;;;25.22;65.77
80678;BME280;70042;52.494;5.502;2023-09-12T01:57:45;101440.03;;;25.23;65.85
80678;BME280;70042;52.494;5.502;2023-09-12T02:00:13;101442.72;;;25.23;65.75
80678;BME280;70042;52.494;5.502;2023-09-12T02:02:38;101440.13;;;25.21;65.96
80678;BME280;70042;52.494;5.502;2023-09-12T02:05:16;101431.22;;;25.21;66.03
80678;BME280;70042;52.494;5.502;2023-09-12T02:07:44;101433.91;;;25.21;65.94
80678;BME280;70042;52.494;5.502;2023-09-12T02:10:11;101427.69;;;25.20;66.23
80678;BME280;70042;52.494;5.502;2023-09-12T02:12:36;101429.53;;;25.18;66.18
80678;BME280;70042;52.494;5.502;2023-09-12T02:15:02;101433.09;;;25.19;65.81
80678;BME280;70042;52.494;5.502;2023-09-12T02:17:27;101428.69;;;25.18;65.82
80678;BME280;70042;52.494;5.502;2023-09-12T02:19:53;101428.69;;;25.18;65.93
80678;BME280;70042;52.494;5.502;2023-09-12T02:22:18;101434.97;;;25.17;66.31
80678;BME280;70042;52.494;5.502;2023-09-12T02:24:43;101435.13;;;25.14;66.14
80678;BME280;70042;52.494;5.502;2023-09-12T02:27:09;101434.19;;;25.15;66.32
80678;BME280;70042;52.494;5.502;2023-09-12T02:29:34;101436.88;;;25.15;66.12
80678;BME280;70042;52.494;5.502;2023-09-12T02:32:00;101426.22;;;25.13;66.06
80678;BME280;70042;52.494;5.502;2023-09-12T02:34:25;101434.19;;;25.15;66.18
80678;BME280;70042;52.494;5.502;2023-09-12T02:36:51;101423.50;;;25.15;66.29
80678;BME280;70042;52.494;5.502;2023-09-12T02:39:16;101423.50;;;25.15;66.11
80678;BME280;70042;52.494;5.502;2023-09-12T02:41:41;101423.50;;;25.15;65.78
80678;BME280;70042;52.494;5.502;2023-09-12T02:44:07;101434.19;;;25.15;65.84
80678;BME280;70042;52.494;5.502;2023-09-12T02:46:33;101428.91;;;25.13;65.73
80678;BME280;70042;52.494;5.502;2023-09-12T02:48:58;101429.00;;;25.12;65.89
80678;BME280;70042;52.494;5.502;2023-09-12T02:51:25;101437.00;;;25.12;65.96
80678;BME280;70042;52.494;5.502;2023-09-12T02:53:51;101431.66;;;25.12;66.04
80678;BME280;70042;52.494;5.502;2023-09-12T02:56:16;101427.16;;;25.12;65.80
80678;BME280;70042;52.494;5.502;2023-09-12T02:58:42;101432.59;;;25.11;66.07
80678;BME280;70042;52.494;5.502;2023-09-12T03:01:07;101428.19;;;25.10;65.90
80678;BME280;70042;52.494;5.502;2023-09-12T03:03:32;101435.28;;;25.11;66.23
80678;BME280;70042;52.494;5.502;2023-09-12T03:06:02;101438.88;;;25.10;65.81
80678;BME280;70042;52.494;5.502;2023-09-12T03:08:28;101427.38;;;25.08;66.04
80678;BME280;70042;52.494;5.502;2023-09-12T03:10:57;101433.63;;;25.08;65.96
80678;BME280;70042;52.494;5.502;2023-09-12T03:13:24;101433.66;;;25.07;65.96
80678;BME280;70042;52.494;5.502;2023-09-12T03:15:50;101431.00;;;25.07;66.12
80678;BME280;70042;52.494;5.502;2023-09-12T03:18:16;101432.75;;;25.08;65.89
80678;BME280;70042;52.494;5.502;2023-09-12T03:20:41;101427.38;;;25.08;66.12
80678;BME280;70042;52.494;5.502;2023-09-12T03:23:07;101432.75;;;25.08;65.76
80678;BME280;70042;52.494;5.502;2023-09-12T03:25:38;101441.69;;;25.07;65.83
80678;BME280;70042;52.494;5.502;2023-09-12T03:28:05;101438.22;;;25.05;66.02
80678;BME280;70042;52.494;5.502;2023-09-12T03:30:33;101440.03;;;25.04;66.10
80678;BME280;70042;52.494;5.502;2023-09-12T03:32:59;101436.47;;;25.04;65.89
80678;BME280;70042;52.494;5.502;2023-09-12T03:35:25;101437.41;;;25.03;66.14
80678;BME280;70042;52.494;5.502;2023-09-12T03:37:51;101443.56;;;25.05;66.03
80678;BME280;70042;52.494;5.502;2023-09-12T03:40:16;101439.16;;;25.04;66.25
80678;BME280;70042;52.494;5.502;2023-09-12T03:42:41;101432.06;;;25.03;66.19
80678;BME280;70042;52.494;5.502;2023-09-12T03:45:07;101429.47;;;25.01;66.10
80678;BME280;70042;52.494;5.502;2023-09-12T03:47:33;101425.00;;;25.02;65.92
80678;BME280;70042;52.494;5.502;2023-09-12T03:49:58;101417.13;;;24.99;65.95
80678;BME280;70042;52.494;5.502;2023-09-12T03:52:23;101415.25;;;25.01;65.96
80678;BME280;70042;52.494;5.502;2023-09-12T03:54:49;101412.72;;;24.98;66.15
80678;BME280;70042;52.494;5.502;2023-09-12T03:57:14;101410.03;;;24.98;66.09
80678;BME280;70042;52.494;5.502;2023-09-12T03:59:40;101406.56;;;24.96;65.95
80678;BME280;70042;52.494;5.502;2023-09-12T04:02:05;101410.19;;;24.94;66.20
80678;BME280;70042;52.494;5.502;2023-09-12T04:04:31;101422.63;;;24.96;66.14
80678;BME280;70042;52.494;5.502;2023-09-12T04:06:56;101422.47;;;24.99;66.16
80678;BME280;70042;52.494;5.502;2023-09-12T04:09:22;101415.38;;;24.98;65.86
80678;BME280;70042;52.494;5.502;2023-09-12T04:11:47;101415.38;;;24.98;66.23
80678;BME280;70042;52.494;5.502;2023-09-12T04:14:14;101411.84;;;24.97;65.82
80678;BME280;70042;52.494;5.502;2023-09-12T04:16:40;101414.50;;;24.97;66.17
80678;BME280;70042;52.494;5.502;2023-09-12T04:19:05;101406.56;;;24.96;66.21
80678;BME280;70042;52.494;5.502;2023-09-12T04:21:30;101407.44;;;24.96;66.08
80678;BME280;70042;52.494;5.502;2023-09-12T04:23:56;101415.53;;;24.94;66.17
80678;BME280;70042;52.494;5.502;2023-09-12T04:26:21;101408.44;;;24.93;66.24
80678;BME280;70042;52.494;5.502;2023-09-12T04:28:47;101413.00;;;24.91;66.28
80678;BME280;70042;52.494;5.502;2023-09-12T04:31:12;101406.72;;;24.92;66.35
80678;BME280;70042;52.494;5.502;2023-09-12T04:33:38;101407.72;;;24.90;66.34
80678;BME280;70042;52.494;5.502;2023-09-12T04:36:04;101401.50;;;24.89;66.23
80678;BME280;70042;52.494;5.502;2023-09-12T04:38:29;101398.84;;;24.89;66.19
80678;BME280;70042;52.494;5.502;2023-09-12T04:40:59;101402.31;;;24.91;66.18
80678;BME280;70042;52.494;5.502;2023-09-12T04:43:28;101397.88;;;24.90;66.09
80678;BME280;70042;52.494;5.502;2023-09-12T04:45:53;101399.63;;;24.91;66.18
80678;BME280;70042;52.494;5.502;2023-09-12T04:48:19;101395.16;;;24.92;66.15
80678;BME280;70042;52.494;5.502;2023-09-12T04:50:44;101393.34;;;24.92;66.08
80678;BME280;70042;52.494;5.502;2023-09-12T04:53:10;101390.69;;;24.92;65.83
80678;BME280;70042;52.494;5.502;2023-09-12T04:55:36;101381.84;;;24.90;66.15
80678;BME280;70042;52.494;5.502;2023-09-12T04:58:01;101398.84;;;24.89;65.72
80678;BME280;70042;52.494;5.502;2023-09-12T05:00:27;101387.19;;;24.90;66.25
80678;BME280;70042;52.494;5.502;2023-09-12T05:02:52;101392.63;;;24.89;66.07
80678;BME280;70042;52.494;5.502;2023-09-12T05:05:18;101397.88;;;24.90;65.82
80678;BME280;70042;52.494;5.502;2023-09-12T05:07:43;101409.59;;;24.88;66.18
80678;BME280;70042;52.494;5.502;2023-09-12T05:10:09;101405.13;;;24.88;66.16
80678;BME280;70042;52.494;5.502;2023-09-12T05:12:34;101391.03;;;24.85;66.26
80678;BME280;70042;52.494;5.502;2023-09-12T05:15:00;101389.38;;;24.82;66.15
80678;BME280;70042;52.494;5.502;2023-09-12T05:17:25;101385.75;;;24.83;66.40
80678;BME280;70042;52.494;5.502;2023-09-12T05:19:50;101393.78;;;24.83;66.14
80678;BME280;70042;52.494;5.502;2023-09-12T05:22:16;101388.44;;;24.83;66.00
80678;BME280;70042;52.494;5.502;2023-09-12T05:24:41;101387.47;;;24.84;66.20
80678;BME280;70042;52.494;5.502;2023-09-12T05:27:07;101391.03;;;24.85;66.10
80678;BME280;70042;52.494;5.502;2023-09-12T05:29:32;101391.94;;;24.84;66.03
80678;BME280;70042;52.494;5.502;2023-09-12T05:31:57;101387.63;;;24.81;66.08
80678;BME280;70042;52.494;5.502;2023-09-12T05:34:23;101400.94;;;24.83;66.05
80678;BME280;70042;52.494;5.502;2023-09-12T05:36:48;101401.03;;;24.80;66.11
80678;BME280;70042;52.494;5.502;2023-09-12T05:39:14;101396.63;;;24.79;66.21
80678;BME280;70042;52.494;5.502;2023-09-12T05:41:39;101402.84;;;24.79;66.30
80678;BME280;70042;52.494;5.502;2023-09-12T05:44:05;101403.75;;;24.78;66.17
80678;BME280;70042;52.494;5.502;2023-09-12T05:46:30;101408.31;;;24.76;66.18
80678;BME280;70042;52.494;5.502;2023-09-12T05:48:56;101407.38;;;24.77;66.46
80678;BME280;70042;52.494;5.502;2023-09-12T05:51:21;101408.53;;;24.72;66.07
80678;BME280;70042;52.494;5.502;2023-09-12T05:53:46;101410.41;;;24.70;66.58
80678;BME280;70042;52.494;5.502;2023-09-12T05:56:12;101413.88;;;24.72;66.44
80678;BME280;70042;52.494;5.502;2023-09-12T05:58:37;101422.84;;;24.71;66.74
80678;BME280;70042;52.494;5.502;2023-09-12T06:01:08;101423.69;;;24.71;66.55
80678;BME280;70042;52.494;5.502;2023-09-12T06:03:33;101422.09;;;24.67;66.94
80678;BME280;70042;52.494;5.502;2023-09-12T06:05:58;101431.09;;;24.65;67.78
80678;BME280;70042;52.494;5.502;2023-09-12T06:08:24;101431.19;;;24.63;67.71
80678;BME280;70042;52.494;5.502;2023-09-12T06:10:49;101425.84;;;24.63;67.04
80678;BME280;70042;52.494;5.502;2023-09-12T06:13:19;101421.28;;;24.65;67.03
80678;BME280;70042;52.494;5.502;2023-09-12T06:15:44;101419.44;;;24.67;66.91
80678;BME280;70042;52.494;5.502;2023-09-12T06:18:10;101423.97;;;24.65;67.23
80678;BME280;70042;52.494;5.502;2023-09-12T06:20:35;101425.84;;;24.63;67.19
80678;BME280;70042;52.494;5.502;2023-09-12T06:23:01;101434.78;;;24.62;67.35
80678;BME280;70042;52.494;5.502;2023-09-12T06:25:32;101436.53;;;24.63;67.51
80678;BME280;70042;52.494;5.502;2023-09-12T06:27:57;101434.66;;;24.65;67.10
80678;BME280;70042;52.494;5.502;2023-09-12T06:30:22;101442.47;;;24.70;67.21
80678;BME280;70042;52.494;5.502;2023-09-12T06:32:48;101444.28;;;24.69;66.52
80678;BME280;70042;52.494;5.502;2023-09-12T06:35:13;101447.75;;;24.71;66.88
80678;BME280;70042;52.494;5.502;2023-09-12T06:37:38;101439.72;;;24.71;66.84
80678;BME280;70042;52.494;5.502;2023-09-12T06:40:06;101446.81;;;24.72;66.71
80678;BME280;70042;52.494;5.502;2023-09-12T06:42:31;101446.81;;;24.72;66.67
80678;BME280;70042;52.494;5.502;2023-09-12T06:44:57;101452.00;;;24.75;66.49
80678;BME280;70042;52.494;5.502;2023-09-12T06:47:22;101434.19;;;24.76;66.48
80678;BME280;70042;52.494;5.502;2023-09-12T06:49:48;101440.41;;;24.76;66.47
80678;BME280;70042;52.494;5.502;2023-09-12T06:52:13;101439.44;;;24.77;66.63
80678;BME280;70042;52.494;5.502;2023-09-12T06:54:39;101436.84;;;24.76;66.64
80678;BME280;70042;52.494;5.502;2023-09-12T06:57:04;101429.84;;;24.73;66.54
80678;BME280;70042;52.494;5.502;2023-09-12T06:59:29;101432.81;;;24.67;66.70
80678;BME280;70042;52.494;5.502;2023-09-12T07:01:55;101430.13;;;24.67;66.83
80678;BME280;70042;52.494;5.502;2023-09-12T07:04:20;101432.66;;;24.70;66.60
80678;BME280;70042;52.494;5.502;2023-09-12T07:06:46;101435.19;;;24.73;66.46
80678;BME280;70042;52.494;5.502;2023-09-12T07:09:11;101434.97;;;24.78;66.34
80678;BME280;70042;52.494;5.502;2023-09-12T07:11:40;101441.19;;;24.78;66.51
80678;BME280;70042;52.494;5.502;2023-09-12T07:14:06;101442.84;;;24.81;66.36
80678;BME280;70042;52.494;5.502;2023-09-12T07:16:32;101441.94;;;24.82;66.37
80678;BME280;70042;52.494;5.502;2023-09-12T07:18:57;101434.81;;;24.81;66.24
80678;BME280;70042;52.494;5.502;2023-09-12T07:21:23;101448.16;;;24.82;66.30
80678;BME280;70042;52.494;5.502;2023-09-12T07:23:48;101453.53;;;24.82;66.00
80678;BME280;70042;52.494;5.502;2023-09-12T07:26:14;101451.72;;;24.83;66.30
80678;BME280;70042;52.494;5.502;2023-09-12T07:28:40;101454.31;;;24.84;66.16
80678;BME280;70042;52.494;5.502;2023-09-12T07:31:05;101465.81;;;24.86;66.16
80678;BME280;70042;52.494;5.502;2023-09-12T07:33:31;101457.78;;;24.86;66.23
80678;BME280;70042;52.494;5.502;2023-09-12T07:35:57;101462.19;;;24.87;66.15
80678;BME280;70042;52.494;5.502;2023-09-12T07:38:22;101465.81;;;24.86;66.22
80678;BME280;70042;52.494;5.502;2023-09-12T07:40:48;101462.31;;;24.84;66.24
80678;BME280;70042;52.494;5.502;2023-09-12T07:43:14;101469.41;;;24.85;66.21
80678;BME280;70042;52.494;5.502;2023-09-12T07:45:39;101460.47;;;24.86;66.21
80678;BME280;70042;52.494;5.502;2023-09-12T07:48:09;101462.19;;;24.87;66.40
80678;BME280;70042;52.494;5.502;2023-09-12T07:50:38;101464.06;;;24.85;66.21
80678;BME280;70042;52.494;5.502;2023-09-12T07:53:07;101460.59;;;24.83;66.46
80678;BME280;70042;52.494;5.502;2023-09-12T07:55:37;101471.31;;;24.83;66.31
80678;BME280;70042;52.494;5.502;2023-09-12T07:58:11;101475.56;;;24.87;66.26
80678;BME280;70042;52.494;5.502;2023-09-12T08:00:37;101468.50;;;24.86;66.35
80678;BME280;70042;52.494;5.502;2023-09-12T08:03:03;101472.81;;;24.89;66.35
80678;BME280;70042;52.494;5.502;2023-09-12T08:05:29;101471.03;;;24.89;66.22
80678;BME280;70042;52.494;5.502;2023-09-12T08:07:54;101466.47;;;24.91;66.17
80678;BME280;70042;52.494;5.502;2023-09-12T08:10:20;101470.06;;;24.90;66.29
80678;BME280;70042;52.494;5.502;2023-09-12T08:12:45;101470.06;;;24.90;66.33
80678;BME280;70042;52.494;5.502;2023-09-12T08:15:11;101471.03;;;24.89;66.45
80678;BME280;70042;52.494;5.502;2023-09-12T08:17:36;101471.94;;;24.88;66.25
80678;BME280;70042;52.494;5.502;2023-09-12T08:20:02;101476.41;;;24.88;66.26
80678;BME280;70042;52.494;5.502;2023-09-12T08:22:28;101475.63;;;24.86;66.24
80678;BME280;70042;52.494;5.502;2023-09-12T08:24:53;101480.97;;;24.86;66.33
80678;BME280;70042;52.494;5.502;2023-09-12T08:27:18;101483.56;;;24.87;66.23
80678;BME280;70042;52.494;5.502;2023-09-12T08:29:44;101483.44;;;24.90;66.29
80678;BME280;70042;52.494;5.502;2023-09-12T08:32:12;101488.63;;;24.93;66.40
80678;BME280;70042;52.494;5.502;2023-09-12T08:34:37;101481.44;;;24.96;66.34
80678;BME280;70042;52.494;5.502;2023-09-12T08:37:03;101486.69;;;24.97;66.32
80678;BME280;70042;52.494;5.502;2023-09-12T08:39:38;101487.66;;;24.96;66.46
80678;BME280;70042;52.494;5.502;2023-09-12T08:42:04;101494.72;;;24.97;66.40
80678;BME280;70042;52.494;5.502;2023-09-12T08:44:31;101498.41;;;24.94;66.29
80678;BME280;70042;52.494;5.502;2023-09-12T08:46:57;101487.66;;;24.96;66.41
80678;BME280;70042;52.494;5.502;2023-09-12T08:49:23;101496.47;;;24.98;66.10
80678;BME280;70042;52.494;5.502;2023-09-12T08:51:48;101490.34;;;24.96;66.41
80678;BME280;70042;52.494;5.502;2023-09-12T08:54:14;101491.03;;;25.00;66.28
80678;BME280;70042;52.494;5.502;2023-09-12T08:56:42;101496.47;;;24.98;66.11
80678;BME280;70042;52.494;5.502;2023-09-12T08:59:10;101493.72;;;25.00;66.22
80678;BME280;70042;52.494;5.502;2023-09-12T09:01:36;101492.72;;;25.02;66.16
80678;BME280;70042;52.494;5.502;2023-09-12T09:04:03;101500.00;;;24.99;66.00
80678;BME280;70042;52.494;5.502;2023-09-12T09:06:31;101490.25;;;24.98;66.37
80678;BME280;70042;52.494;5.502;2023-09-12T09:09:04;101493.78;;;24.98;66.48
80678;BME280;70042;52.494;5.502;2023-09-12T09:11:30;101491.13;;;24.98;66.31
80678;BME280;70042;52.494;5.502;2023-09-12T09:13:56;101502.69;;;24.99;66.45
80678;BME280;70042;52.494;5.502;2023-09-12T09:16:23;101498.22;;;24.99;66.41
80678;BME280;70042;52.494;5.502;2023-09-12T09:21:24;101497.47;;;24.96;66.80
80678;BME280;70042;52.494;5.502;2023-09-12T09:23:51;101498.34;;;24.96;67.71
80678;BME280;70042;52.494;5.502;2023-09-12T09:26:17;101490.25;;;24.98;67.13
80678;BME280;70042;52.494;5.502;2023-09-12T09:28:43;101499.06;;;25.00;67.20
80678;BME280;70042;52.494;5.502;2023-09-12T09:31:13;101488.22;;;25.03;67.66
80678;BME280;70042;52.494;5.502;2023-09-12T09:33:42;101477.53;;;25.03;67.33
80678;BME280;70042;52.494;5.502;2023-09-12T09:36:14;101475.66;;;25.05;67.25
80678;BME280;70042;52.494;5.502;2023-09-12T09:38:40;101483.59;;;25.06;67.38
80678;BME280;70042;52.494;5.502;2023-09-12T09:41:05;101496.91;;;25.08;67.32
80678;BME280;70042;52.494;5.502;2023-09-12T09:43:31;101479.94;;;25.09;67.32
80678;BME280;70042;52.494;5.502;2023-09-12T09:45:57;101487.81;;;25.12;67.56
80678;BME280;70042;52.494;5.502;2023-09-12T09:48:25;101477.97;;;25.12;67.57
80678;BME280;70042;52.494;5.502;2023-09-12T09:51:00;101485.94;;;25.14;67.26
80678;BME280;70042;52.494;5.502;2023-09-12T09:53:26;101480.59;;;25.14;67.37
80678;BME280;70042;52.494;5.502;2023-09-12T09:55:51;101484.13;;;25.14;67.21
80678;BME280;70042;52.494;5.502;2023-09-12T09:58:17;101485.06;;;25.13;67.15
80678;BME280;70042;52.494;5.502;2023-09-12T10:00:43;101486.81;;;25.14;67.43
80678;BME280;70042;52.494;5.502;2023-09-12T10:03:10;101486.88;;;25.13;67.51
80678;BME280;70042;52.494;5.502;2023-09-12T10:05:37;101491.28;;;25.14;67.42
80678;BME280;70042;52.494;5.502;2023-09-12T10:08:06;101488.59;;;25.14;67.20
80678;BME280;70042;52.494;5.502;2023-09-12T10:10:32;101495.75;;;25.13;67.42
80678;BME280;70042;52.494;5.502;2023-09-12T10:13:02;101488.66;;;25.12;67.24
80678;BME280;70042;52.494;5.502;2023-09-12T10:15:30;101494.88;;;25.13;67.19
80678;BME280;70042;52.494;5.502;2023-09-12T10:18:00;101491.28;;;25.14;67.24
80678;BME280;70042;52.494;5.502;2023-09-12T10:20:50;101497.50;;;25.14;67.43
80678;BME280;70042;52.494;5.502;2023-09-12T10:23:38;101505.44;;;25.16;67.45
80678;BME280;70042;52.494;5.502;2023-09-12T10:26:09;101501.84;;;25.17;67.24
80678;BME280;70042;52.494;5.502;2023-09-12T10:28:37;101505.31;;;25.19;67.24
80678;BME280;70042;52.494;5.502;2023-09-12T10:31:04;101502.63;;;25.19;67.44
80678;BME280;70042;52.494;5.502;2023-09-12T10:33:31;101489.19;;;25.20;67.21
80678;BME280;70042;52.494;5.502;2023-09-12T10:35:57;101499.81;;;25.22;67.05
80678;BME280;70042;52.494;5.502;2023-09-12T10:38:27;101496.22;;;25.23;67.35
80678;BME280;70042;52.494;5.502;2023-09-12T10:40:55;101495.19;;;25.25;67.31
80678;BME280;70042;52.494;5.502;2023-09-12T10:43:21;101502.28;;;25.26;67.20
80678;BME280;70042;52.494;5.502;2023-09-12T10:45:49;101500.47;;;25.27;66.98
80678;BME280;70042;52.494;5.502;2023-09-12T10:48:17;101499.53;;;25.28;66.99
80678;BME280;70042;52.494;5.502;2023-09-12T10:50:42;101502.19;;;25.28;67.04
80678;BME280;70042;52.494;5.502;2023-09-12T10:53:13;101503.81;;;25.32;69.05
80678;BME280;70042;52.494;5.502;2023-09-12T10:55:40;101509.88;;;25.35;68.71
80678;BME280;70042;52.494;5.502;2023-09-12T10:58:08;101508.88;;;25.38;68.81
80678;BME280;70042;52.494;5.502;2023-09-12T11:00:34;101504.31;;;25.40;68.48
80678;BME280;70042;52.494;5.502;2023-09-12T11:03:44;101503.38;;;25.41;67.83
80678;BME280;70042;52.494;5.502;2023-09-12T11:05:51;101504.38;;;25.38;67.89
80678;BME280;70042;52.494;5.502;2023-09-12T11:08:18;101518.63;;;25.39;67.96
80678;BME280;70042;52.494;5.502;2023-09-12T11:10:43;101509.75;;;25.38;67.32
80678;BME280;70042;52.494;5.502;2023-09-12T11:13:17;101520.53;;;25.37;67.48
80678;BME280;70042;52.494;5.502;2023-09-12T11:16:10;101516.00;;;25.37;67.64
80678;BME280;70042;52.494;5.502;2023-09-12T11:21:46;101506.19;;;25.38;67.11
80678;BME280;70042;52.494;5.502;2023-09-12T11:24:13;101506.19;;;25.38;67.28
80678;BME280;70042;52.494;5.502;2023-09-12T11:26:56;101499.13;;;25.37;67.01
80678;BME280;70042;52.494;5.502;2023-09-12T11:29:35;101502.72;;;25.36;67.14
80678;BME280;70042;52.494;5.502;2023-09-12T11:32:01;101507.16;;;25.37;66.97
80678;BME280;70042;52.494;5.502;2023-09-12T11:34:37;101504.47;;;25.37;67.31
80678;BME280;70042;52.494;5.502;2023-09-12T11:37:03;101498.25;;;25.36;67.01
80678;BME280;70042;52.494;5.502;2023-09-12T11:39:31;101491.94;;;25.37;67.13
80678;BME280;70042;52.494;5.502;2023-09-12T11:41:58;101495.50;;;25.38;67.24
80678;BME280;70042;52.494;5.502;2023-09-12T11:44:25;101495.44;;;25.39;67.11
80678;BME280;70042;52.494;5.502;2023-09-12T11:46:52;101488.28;;;25.40;67.00
80678;BME280;70042;52.494;5.502;2023-09-12T11:49:18;101499.81;;;25.40;67.08
80678;BME280;70042;52.494;5.502;2023-09-12T11:51:52;101498.00;;;25.41;66.80
80678;BME280;70042;52.494;5.502;2023-09-12T11:54:19;101495.34;;;25.41;66.73
80678;BME280;70042;52.494;5.502;2023-09-12T11:56:48;101493.47;;;25.43;67.01
80678;BME280;70042;52.494;5.502;2023-09-12T11:59:15;101492.47;;;25.45;67.05
80678;BME280;70042;52.494;5.502;2023-09-12T12:01:44;101489.69;;;25.47;66.99
80678;BME280;70042;52.494;5.502;2023-09-12T12:04:09;101487.88;;;25.49;66.88
80678;BME280;70042;52.494;5.502;2023-09-12T12:06:35;101487.88;;;25.49;66.67
80678;BME280;70042;52.494;5.502;2023-09-12T12:09:02;101480.72;;;25.50;66.59
80678;BME280;70042;52.494;5.502;2023-09-12T12:11:30;101483.41;;;25.50;66.04
80678;BME280;70042;52.494;5.502;2023-09-12T12:13:55;101488.66;;;25.51;66.17
80678;BME280;70042;52.494;5.502;2023-09-12T12:16:20;101489.59;;;25.50;66.21
80678;BME280;70042;52.494;5.502;2023-09-12T12:18:46;101485.97;;;25.51;66.98
80678;BME280;70042;52.494;5.502;2023-09-12T12:21:11;101476.16;;;25.52;66.72
80678;BME280;70042;52.494;5.502;2023-09-12T12:23:37;101471.53;;;25.55;66.35
80678;BME280;70042;52.494;5.502;2023-09-12T12:26:13;101463.56;;;25.54;66.25
80678;BME280;70042;52.494;5.502;2023-09-12T12:28:40;101467.19;;;25.53;66.25
80678;BME280;70042;52.494;5.502;2023-09-12T12:31:06;101476.06;;;25.53;66.59
80678;BME280;70042;52.494;5.502;2023-09-12T12:33:31;101469.78;;;25.54;66.37
80678;BME280;70042;52.494;5.502;2023-09-12T12:36:04;101464.44;;;25.54;66.60
80678;BME280;70042;52.494;5.502;2023-09-12T12:38:38;101476.00;;;25.55;66.12
80678;BME280;70042;52.494;5.502;2023-09-12T12:41:05;101466.16;;;25.55;66.59
80678;BME280;70042;52.494;5.502;2023-09-12T12:43:31;101469.78;;;25.54;66.34
80678;BME280;70042;52.494;5.502;2023-09-12T12:45:58;101476.94;;;25.54;66.42
80678;BME280;70042;52.494;5.502;2023-09-12T12:48:34;101467.09;;;25.54;66.41
80678;BME280;70042;52.494;5.502;2023-09-12T12:51:23;101461.84;;;25.53;66.44
80678;BME280;70042;52.494;5.502;2023-09-12T12:53:51;101464.44;;;25.54;66.61
80678;BME280;70042;52.494;5.502;2023-09-12T12:56:22;101471.53;;;25.55;66.42
80678;BME280;70042;52.494;5.502;2023-09-12T12:58:57;101476.88;;;25.55;66.56